sensor_id;sensor_type;location;lat;lon;timestamp;P1;durP1;ratioP1;P2;durP2;ratioP2
58063;SDS011;43851;55.856;37.186;2022-07-29T00:00:06;3.17;;;2.15;;
58063;SDS011;43851;55.856;37.186;2022-07-29T00:02:33;4.65;;;1.80;;
58063;SDS011;43851;55.856;37.186;2022-07-29T00:04:59;3.70;;;1.83;;
58063;SDS011;43851;55.856;37.186;2022-07-29T00:07:28;2.75;;;1.88;;
58063;SDS011;43851;55.856;37.186;2022-07-29T00:09:54;8.25;;;1.95;;
58063;SDS011;43851;55.856;37.186;2022-07-29T00:12:20;4.45;;;1.70;;
58063;SDS011;43851;55.856;37.186;2022-07-29T00:14:48;5.95;;;1.80;;
58063;SDS011;43851;55.856;37.186;2022-07-29T00:17:14;5.28;;;1.75;;
58063;SDS011;43851;55.856;37.186;2022-07-29T00:19:39;3.25;;;1.95;;
58063;SDS011;43851;55.856;37.186;2022-07-29T00:22:05;5.65;;;2.08;;
58063;SDS011;43851;55.856;37.186;2022-07-29T00:24:31;4.15;;;1.70;;
58063;SDS011;43851;55.856;37.186;2022-07-29T00:26:57;5.90;;;1.77;;
58063;SDS011;43851;55.856;37.186;2022-07-29T00:29:23;5.57;;;2.20;;
58063;SDS011;43851;55.856;37.186;2022-07-29T00:31:49;10.55;;;2.25;;
58063;SDS011;43851;55.856;37.186;2022-07-29T00:34:15;5.28;;;2.30;;
58063;SDS011;43851;55.856;37.186;2022-07-29T00:36:59;4.43;;;2.25;;
58063;SDS011;43851;55.856;37.186;2022-07-29T00:39:25;4.32;;;2.15;;
58063;SDS011;43851;55.856;37.186;2022-07-29T00:41:51;3.58;;;1.80;;
58063;SDS011;43851;55.856;37.186;2022-07-29T00:44:17;2.63;;;1.90;;
58063;SDS011;43851;55.856;37.186;2022-07-29T00:46:43;1.58;;;1.40;;
58063;SDS011;43851;55.856;37.186;2022-07-29T00:49:08;6.00;;;1.77;;
58063;SDS011;43851;55.856;37.186;2022-07-29T00:51:35;4.93;;;1.60;;
58063;SDS011;43851;55.856;37.186;2022-07-29T00:54:02;3.78;;;2.00;;
58063;SDS011;43851;55.856;37.186;2022-07-29T00:56:29;3.30;;;1.98;;
58063;SDS011;43851;55.856;37.186;2022-07-29T00:58:56;3.58;;;1.63;;
58063;SDS011;43851;55.856;37.186;2022-07-29T01:01:23;3.78;;;1.70;;
58063;SDS011;43851;55.856;37.186;2022-07-29T01:03:49;5.15;;;2.05;;
58063;SDS011;43851;55.856;37.186;2022-07-29T01:06:18;6.63;;;1.90;;
58063;SDS011;43851;55.856;37.186;2022-07-29T01:08:45;3.90;;;1.92;;
58063;SDS011;43851;55.856;37.186;2022-07-29T01:11:13;5.32;;;2.00;;
58063;SDS011;43851;55.856;37.186;2022-07-29T01:13:40;5.13;;;2.15;;
58063;SDS011;43851;55.856;37.186;2022-07-29T01:19:07;4.05;;;1.90;;
58063;SDS011;43851;55.856;37.186;2022-07-29T01:21:55;3.03;;;1.65;;
58063;SDS011;43851;55.856;37.186;2022-07-29T01:24:46;7.22;;;2.20;;
58063;SDS011;43851;55.856;37.186;2022-07-29T01:30:04;3.92;;;1.90;;
58063;SDS011;43851;55.856;37.186;2022-07-29T01:32:35;6.63;;;2.50;;
58063;SDS011;43851;55.856;37.186;2022-07-29T01:37:50;3.90;;;1.80;;
58063;SDS011;43851;55.856;37.186;2022-07-29T01:40:27;7.35;;;1.98;;
58063;SDS011;43851;55.856;37.186;2022-07-29T01:42:58;7.28;;;2.17;;
58063;SDS011;43851;55.856;37.186;2022-07-29T01:48:14;6.20;;;1.88;;
58063;SDS011;43851;55.856;37.186;2022-07-29T01:50:50;3.35;;;2.15;;
58063;SDS011;43851;55.856;37.186;2022-07-29T01:53:38;2.03;;;1.75;;
58063;SDS011;43851;55.856;37.186;2022-07-29T01:56:27;6.00;;;2.30;;
58063;SDS011;43851;55.856;37.186;2022-07-29T01:58:57;5.18;;;2.45;;
58063;SDS011;43851;55.856;37.186;2022-07-29T02:01:24;3.38;;;2.13;;
58063;SDS011;43851;55.856;37.186;2022-07-29T02:03:52;7.20;;;2.30;;
58063;SDS011;43851;55.856;37.186;2022-07-29T02:06:21;8.95;;;2.30;;
58063;SDS011;43851;55.856;37.186;2022-07-29T02:08:48;4.40;;;1.90;;
58063;SDS011;43851;55.856;37.186;2022-07-29T02:11:16;4.90;;;2.38;;
58063;SDS011;43851;55.856;37.186;2022-07-29T02:13:42;4.13;;;2.08;;
58063;SDS011;43851;55.856;37.186;2022-07-29T02:16:09;3.50;;;1.73;;
58063;SDS011;43851;55.856;37.186;2022-07-29T02:18:39;3.78;;;1.65;;
58063;SDS011;43851;55.856;37.186;2022-07-29T02:21:09;3.85;;;1.90;;
58063;SDS011;43851;55.856;37.186;2022-07-29T02:23:35;3.72;;;2.10;;
58063;SDS011;43851;55.856;37.186;2022-07-29T02:26:03;3.75;;;2.00;;
58063;SDS011;43851;55.856;37.186;2022-07-29T02:28:30;2.30;;;1.50;;
58063;SDS011;43851;55.856;37.186;2022-07-29T02:31:00;6.85;;;2.03;;
58063;SDS011;43851;55.856;37.186;2022-07-29T02:33:27;5.00;;;1.58;;
58063;SDS011;43851;55.856;37.186;2022-07-29T02:35:55;3.97;;;1.42;;
58063;SDS011;43851;55.856;37.186;2022-07-29T02:38:23;3.00;;;1.27;;
58063;SDS011;43851;55.856;37.186;2022-07-29T02:41:12;4.40;;;1.60;;
58063;SDS011;43851;55.856;37.186;2022-07-29T02:43:43;2.55;;;1.55;;
58063;SDS011;43851;55.856;37.186;2022-07-29T02:46:14;2.10;;;1.45;;
58063;SDS011;43851;55.856;37.186;2022-07-29T02:48:51;6.45;;;1.70;;
58063;SDS011;43851;55.856;37.186;2022-07-29T02:51:25;4.32;;;1.42;;
58063;SDS011;43851;55.856;37.186;2022-07-29T02:53:59;3.72;;;1.35;;
58063;SDS011;43851;55.856;37.186;2022-07-29T02:56:30;2.67;;;1.40;;
58063;SDS011;43851;55.856;37.186;2022-07-29T02:59:04;3.13;;;1.27;;
58063;SDS011;43851;55.856;37.186;2022-07-29T03:01:35;5.15;;;1.27;;
58063;SDS011;43851;55.856;37.186;2022-07-29T03:04:05;2.03;;;1.20;;
58063;SDS011;43851;55.856;37.186;2022-07-29T03:06:34;3.65;;;1.10;;
58063;SDS011;43851;55.856;37.186;2022-07-29T03:09:02;3.13;;;1.20;;
58063;SDS011;43851;55.856;37.186;2022-07-29T03:11:29;3.50;;;1.20;;
58063;SDS011;43851;55.856;37.186;2022-07-29T03:13:55;8.02;;;1.60;;
58063;SDS011;43851;55.856;37.186;2022-07-29T03:16:21;8.55;;;1.48;;
58063;SDS011;43851;55.856;37.186;2022-07-29T03:18:49;3.88;;;1.33;;
58063;SDS011;43851;55.856;37.186;2022-07-29T03:21:16;2.15;;;1.10;;
58063;SDS011;43851;55.856;37.186;2022-07-29T03:23:45;4.05;;;1.40;;
58063;SDS011;43851;55.856;37.186;2022-07-29T03:26:11;2.13;;;1.10;;
58063;SDS011;43851;55.856;37.186;2022-07-29T03:28:37;3.25;;;1.15;;
58063;SDS011;43851;55.856;37.186;2022-07-29T03:31:03;1.45;;;0.80;;
58063;SDS011;43851;55.856;37.186;2022-07-29T03:33:29;7.18;;;0.93;;
58063;SDS011;43851;55.856;37.186;2022-07-29T03:35:55;2.88;;;0.90;;
58063;SDS011;43851;55.856;37.186;2022-07-29T03:38:23;7.40;;;1.30;;
58063;SDS011;43851;55.856;37.186;2022-07-29T03:40:54;2.53;;;1.15;;
58063;SDS011;43851;55.856;37.186;2022-07-29T03:43:24;4.68;;;1.20;;
58063;SDS011;43851;55.856;37.186;2022-07-29T03:45:54;3.65;;;1.15;;
58063;SDS011;43851;55.856;37.186;2022-07-29T03:48:21;3.70;;;1.30;;
58063;SDS011;43851;55.856;37.186;2022-07-29T03:50:51;7.03;;;1.27;;
58063;SDS011;43851;55.856;37.186;2022-07-29T03:53:17;3.35;;;1.10;;
58063;SDS011;43851;55.856;37.186;2022-07-29T03:55:44;5.28;;;1.30;;
58063;SDS011;43851;55.856;37.186;2022-07-29T03:58:14;2.90;;;0.98;;
58063;SDS011;43851;55.856;37.186;2022-07-29T04:00:40;5.80;;;1.13;;
58063;SDS011;43851;55.856;37.186;2022-07-29T04:03:08;4.68;;;1.17;;
58063;SDS011;43851;55.856;37.186;2022-07-29T04:05:34;2.97;;;1.05;;
58063;SDS011;43851;55.856;37.186;2022-07-29T04:08:00;6.38;;;1.17;;
58063;SDS011;43851;55.856;37.186;2022-07-29T04:10:26;4.57;;;1.20;;
58063;SDS011;43851;55.856;37.186;2022-07-29T04:12:52;7.30;;;1.50;;
58063;SDS011;43851;55.856;37.186;2022-07-29T04:15:18;3.70;;;1.35;;
58063;SDS011;43851;55.856;37.186;2022-07-29T04:17:44;2.42;;;1.10;;
58063;SDS011;43851;55.856;37.186;2022-07-29T04:20:10;3.70;;;1.00;;
58063;SDS011;43851;55.856;37.186;2022-07-29T04:22:41;7.13;;;1.17;;
58063;SDS011;43851;55.856;37.186;2022-07-29T04:25:07;3.28;;;1.20;;
58063;SDS011;43851;55.856;37.186;2022-07-29T04:27:33;2.20;;;1.00;;
58063;SDS011;43851;55.856;37.186;2022-07-29T04:29:59;6.78;;;1.10;;
58063;SDS011;43851;55.856;37.186;2022-07-29T04:32:25;8.63;;;1.00;;
58063;SDS011;43851;55.856;37.186;2022-07-29T04:34:52;5.78;;;1.08;;
58063;SDS011;43851;55.856;37.186;2022-07-29T04:37:18;4.88;;;1.08;;
58063;SDS011;43851;55.856;37.186;2022-07-29T04:39:44;1.70;;;0.70;;
58063;SDS011;43851;55.856;37.186;2022-07-29T04:42:10;3.53;;;1.30;;
58063;SDS011;43851;55.856;37.186;2022-07-29T04:44:35;1.27;;;1.00;;
58063;SDS011;43851;55.856;37.186;2022-07-29T04:47:01;2.17;;;0.95;;
58063;SDS011;43851;55.856;37.186;2022-07-29T04:49:27;2.38;;;1.10;;
58063;SDS011;43851;55.856;37.186;2022-07-29T04:51:53;4.85;;;1.00;;
58063;SDS011;43851;55.856;37.186;2022-07-29T04:54:19;2.75;;;0.90;;
58063;SDS011;43851;55.856;37.186;2022-07-29T04:56:45;5.13;;;1.15;;
58063;SDS011;43851;55.856;37.186;2022-07-29T04:59:11;5.10;;;2.03;;
58063;SDS011;43851;55.856;37.186;2022-07-29T05:01:37;4.85;;;1.83;;
58063;SDS011;43851;55.856;37.186;2022-07-29T05:04:03;5.93;;;1.70;;
58063;SDS011;43851;55.856;37.186;2022-07-29T05:06:29;4.78;;;1.25;;
58063;SDS011;43851;55.856;37.186;2022-07-29T05:08:55;3.65;;;1.38;;
58063;SDS011;43851;55.856;37.186;2022-07-29T05:11:20;8.60;;;4.03;;
58063;SDS011;43851;55.856;37.186;2022-07-29T05:13:46;4.88;;;1.45;;
58063;SDS011;43851;55.856;37.186;2022-07-29T05:16:12;9.32;;;2.15;;
58063;SDS011;43851;55.856;37.186;2022-07-29T05:18:38;3.58;;;0.82;;
58063;SDS011;43851;55.856;37.186;2022-07-29T05:21:04;3.08;;;1.13;;
58063;SDS011;43851;55.856;37.186;2022-07-29T05:23:30;1.77;;;0.70;;
58063;SDS011;43851;55.856;37.186;2022-07-29T05:25:56;1.42;;;0.88;;
58063;SDS011;43851;55.856;37.186;2022-07-29T05:28:22;3.45;;;1.13;;
58063;SDS011;43851;55.856;37.186;2022-07-29T05:30:48;2.90;;;0.80;;
58063;SDS011;43851;55.856;37.186;2022-07-29T05:33:14;3.45;;;0.65;;
58063;SDS011;43851;55.856;37.186;2022-07-29T05:35:41;2.58;;;0.88;;
58063;SDS011;43851;55.856;37.186;2022-07-29T05:38:06;2.28;;;0.90;;
58063;SDS011;43851;55.856;37.186;2022-07-29T05:40:32;6.68;;;0.90;;
58063;SDS011;43851;55.856;37.186;2022-07-29T05:42:59;2.25;;;0.98;;
58063;SDS011;43851;55.856;37.186;2022-07-29T05:45:25;2.78;;;1.00;;
58063;SDS011;43851;55.856;37.186;2022-07-29T05:47:50;1.40;;;0.80;;
58063;SDS011;43851;55.856;37.186;2022-07-29T05:50:16;1.70;;;0.80;;
58063;SDS011;43851;55.856;37.186;2022-07-29T05:52:42;3.67;;;1.10;;
58063;SDS011;43851;55.856;37.186;2022-07-29T05:55:08;2.42;;;0.98;;
58063;SDS011;43851;55.856;37.186;2022-07-29T05:57:34;2.92;;;0.85;;
58063;SDS011;43851;55.856;37.186;2022-07-29T06:00:00;4.97;;;1.23;;
58063;SDS011;43851;55.856;37.186;2022-07-29T06:02:26;2.58;;;0.98;;
58063;SDS011;43851;55.856;37.186;2022-07-29T06:04:51;2.53;;;0.80;;
58063;SDS011;43851;55.856;37.186;2022-07-29T06:07:17;3.25;;;0.93;;
58063;SDS011;43851;55.856;37.186;2022-07-29T06:09:43;4.72;;;0.75;;
58063;SDS011;43851;55.856;37.186;2022-07-29T06:12:09;3.53;;;1.00;;
58063;SDS011;43851;55.856;37.186;2022-07-29T06:14:35;2.92;;;1.25;;
58063;SDS011;43851;55.856;37.186;2022-07-29T06:17:01;3.92;;;1.20;;
58063;SDS011;43851;55.856;37.186;2022-07-29T06:19:27;3.17;;;1.20;;
58063;SDS011;43851;55.856;37.186;2022-07-29T06:21:53;2.03;;;0.80;;
58063;SDS011;43851;55.856;37.186;2022-07-29T06:24:18;3.17;;;0.90;;
58063;SDS011;43851;55.856;37.186;2022-07-29T06:26:44;2.25;;;1.00;;
58063;SDS011;43851;55.856;37.186;2022-07-29T06:29:10;2.50;;;0.90;;
58063;SDS011;43851;55.856;37.186;2022-07-29T06:31:36;3.42;;;0.93;;
58063;SDS011;43851;55.856;37.186;2022-07-29T06:34:03;2.03;;;1.00;;
58063;SDS011;43851;55.856;37.186;2022-07-29T06:36:29;2.17;;;1.10;;
58063;SDS011;43851;55.856;37.186;2022-07-29T06:38:55;3.00;;;1.20;;
58063;SDS011;43851;55.856;37.186;2022-07-29T06:41:21;3.90;;;1.00;;
58063;SDS011;43851;55.856;37.186;2022-07-29T06:43:48;2.28;;;0.80;;
58063;SDS011;43851;55.856;37.186;2022-07-29T06:46:15;2.80;;;1.00;;
58063;SDS011;43851;55.856;37.186;2022-07-29T06:48:42;2.63;;;0.80;;
58063;SDS011;43851;55.856;37.186;2022-07-29T06:51:09;2.97;;;0.80;;
58063;SDS011;43851;55.856;37.186;2022-07-29T06:53:36;2.78;;;0.90;;
58063;SDS011;43851;55.856;37.186;2022-07-29T06:56:04;2.75;;;0.70;;
58063;SDS011;43851;55.856;37.186;2022-07-29T06:58:31;2.72;;;0.80;;
58063;SDS011;43851;55.856;37.186;2022-07-29T07:00:58;5.03;;;0.75;;
58063;SDS011;43851;55.856;37.186;2022-07-29T07:03:26;4.40;;;1.10;;
58063;SDS011;43851;55.856;37.186;2022-07-29T07:05:52;3.92;;;1.25;;
58063;SDS011;43851;55.856;37.186;2022-07-29T07:08:20;1.35;;;0.80;;
58063;SDS011;43851;55.856;37.186;2022-07-29T07:10:47;2.97;;;1.20;;
58063;SDS011;43851;55.856;37.186;2022-07-29T07:13:13;2.75;;;1.10;;
58063;SDS011;43851;55.856;37.186;2022-07-29T07:15:40;2.60;;;0.75;;
58063;SDS011;43851;55.856;37.186;2022-07-29T07:18:06;2.35;;;1.05;;
58063;SDS011;43851;55.856;37.186;2022-07-29T07:20:32;1.17;;;0.73;;
58063;SDS011;43851;55.856;37.186;2022-07-29T07:22:59;1.80;;;0.80;;
58063;SDS011;43851;55.856;37.186;2022-07-29T07:25:25;1.20;;;0.90;;
58063;SDS011;43851;55.856;37.186;2022-07-29T07:27:51;2.92;;;0.85;;
58063;SDS011;43851;55.856;37.186;2022-07-29T07:30:17;4.97;;;1.27;;
58063;SDS011;43851;55.856;37.186;2022-07-29T07:32:43;5.25;;;1.00;;
58063;SDS011;43851;55.856;37.186;2022-07-29T07:35:09;3.70;;;1.38;;
58063;SDS011;43851;55.856;37.186;2022-07-29T07:37:36;2.15;;;1.13;;
58063;SDS011;43851;55.856;37.186;2022-07-29T07:40:03;3.20;;;1.13;;
58063;SDS011;43851;55.856;37.186;2022-07-29T07:42:30;3.45;;;0.82;;
58063;SDS011;43851;55.856;37.186;2022-07-29T07:44:56;4.00;;;0.82;;
58063;SDS011;43851;55.856;37.186;2022-07-29T07:47:21;1.75;;;0.82;;
58063;SDS011;43851;55.856;37.186;2022-07-29T07:49:49;2.47;;;1.05;;
58063;SDS011;43851;55.856;37.186;2022-07-29T07:52:16;6.85;;;1.52;;
58063;SDS011;43851;55.856;37.186;2022-07-29T07:54:43;4.25;;;1.30;;
58063;SDS011;43851;55.856;37.186;2022-07-29T07:57:13;5.05;;;1.17;;
58063;SDS011;43851;55.856;37.186;2022-07-29T07:59:40;3.08;;;1.17;;
58063;SDS011;43851;55.856;37.186;2022-07-29T08:02:06;1.90;;;0.80;;
58063;SDS011;43851;55.856;37.186;2022-07-29T08:04:32;1.10;;;1.00;;
58063;SDS011;43851;55.856;37.186;2022-07-29T08:06:59;1.27;;;0.80;;
58063;SDS011;43851;55.856;37.186;2022-07-29T08:09:25;3.55;;;0.70;;
58063;SDS011;43851;55.856;37.186;2022-07-29T08:11:52;1.85;;;0.77;;
58063;SDS011;43851;55.856;37.186;2022-07-29T08:14:19;2.25;;;0.73;;
58063;SDS011;43851;55.856;37.186;2022-07-29T08:16:45;1.35;;;0.70;;
58063;SDS011;43851;55.856;37.186;2022-07-29T08:19:12;3.35;;;0.90;;
58063;SDS011;43851;55.856;37.186;2022-07-29T08:21:38;1.60;;;0.63;;
58063;SDS011;43851;55.856;37.186;2022-07-29T08:24:05;2.42;;;0.95;;
58063;SDS011;43851;55.856;37.186;2022-07-29T08:26:49;1.60;;;0.82;;
58063;SDS011;43851;55.856;37.186;2022-07-29T08:29:15;3.33;;;1.90;;
58063;SDS011;43851;55.856;37.186;2022-07-29T08:31:41;3.28;;;1.45;;
58063;SDS011;43851;55.856;37.186;2022-07-29T08:34:08;2.67;;;1.10;;
58063;SDS011;43851;55.856;37.186;2022-07-29T08:36:34;1.98;;;0.73;;
58063;SDS011;43851;55.856;37.186;2022-07-29T08:39:00;2.47;;;1.00;;
58063;SDS011;43851;55.856;37.186;2022-07-29T08:41:27;3.65;;;0.90;;
58063;SDS011;43851;55.856;37.186;2022-07-29T08:43:52;1.83;;;0.68;;
58063;SDS011;43851;55.856;37.186;2022-07-29T08:46:19;3.90;;;0.98;;
58063;SDS011;43851;55.856;37.186;2022-07-29T08:48:46;1.00;;;0.60;;
58063;SDS011;43851;55.856;37.186;2022-07-29T08:51:13;3.05;;;0.80;;
58063;SDS011;43851;55.856;37.186;2022-07-29T08:53:41;4.45;;;0.77;;
58063;SDS011;43851;55.856;37.186;2022-07-29T08:56:11;4.53;;;0.93;;
58063;SDS011;43851;55.856;37.186;2022-07-29T08:58:45;2.15;;;0.75;;
58063;SDS011;43851;55.856;37.186;2022-07-29T09:01:13;0.90;;;0.70;;
58063;SDS011;43851;55.856;37.186;2022-07-29T09:03:43;3.08;;;0.90;;
58063;SDS011;43851;55.856;37.186;2022-07-29T09:06:12;3.65;;;0.65;;
58063;SDS011;43851;55.856;37.186;2022-07-29T09:08:40;1.88;;;0.85;;
58063;SDS011;43851;55.856;37.186;2022-07-29T09:11:06;1.58;;;0.73;;
58063;SDS011;43851;55.856;37.186;2022-07-29T09:13:33;3.35;;;1.13;;
58063;SDS011;43851;55.856;37.186;2022-07-29T09:16:00;1.30;;;0.75;;
58063;SDS011;43851;55.856;37.186;2022-07-29T09:18:39;2.05;;;0.90;;
58063;SDS011;43851;55.856;37.186;2022-07-29T09:21:07;2.17;;;0.80;;
58063;SDS011;43851;55.856;37.186;2022-07-29T09:24:01;2.25;;;0.70;;
58063;SDS011;43851;55.856;37.186;2022-07-29T09:26:36;2.05;;;0.60;;
58063;SDS011;43851;55.856;37.186;2022-07-29T09:29:16;2.45;;;0.80;;
58063;SDS011;43851;55.856;37.186;2022-07-29T09:31:45;1.63;;;0.68;;
58063;SDS011;43851;55.856;37.186;2022-07-29T09:34:13;2.10;;;0.95;;
58063;SDS011;43851;55.856;37.186;2022-07-29T09:36:41;2.40;;;0.63;;
58063;SDS011;43851;55.856;37.186;2022-07-29T09:39:09;4.05;;;0.93;;
58063;SDS011;43851;55.856;37.186;2022-07-29T09:41:48;2.03;;;0.73;;
58063;SDS011;43851;55.856;37.186;2022-07-29T09:44:20;0.77;;;0.50;;
58063;SDS011;43851;55.856;37.186;2022-07-29T09:47:00;1.80;;;0.95;;
58063;SDS011;43851;55.856;37.186;2022-07-29T09:49:34;1.52;;;0.80;;
58063;SDS011;43851;55.856;37.186;2022-07-29T09:52:06;2.45;;;0.90;;
58063;SDS011;43851;55.856;37.186;2022-07-29T09:54:33;2.15;;;0.77;;
58063;SDS011;43851;55.856;37.186;2022-07-29T09:57:04;2.63;;;0.88;;
58063;SDS011;43851;55.856;37.186;2022-07-29T09:59:31;3.85;;;0.70;;
58063;SDS011;43851;55.856;37.186;2022-07-29T10:01:57;6.63;;;1.00;;
58063;SDS011;43851;55.856;37.186;2022-07-29T10:04:23;2.67;;;0.55;;
58063;SDS011;43851;55.856;37.186;2022-07-29T10:06:59;5.75;;;0.90;;
58063;SDS011;43851;55.856;37.186;2022-07-29T10:09:26;0.68;;;0.57;;
58063;SDS011;43851;55.856;37.186;2022-07-29T10:12:11;1.25;;;0.55;;
58063;SDS011;43851;55.856;37.186;2022-07-29T10:14:40;1.77;;;0.80;;
58063;SDS011;43851;55.856;37.186;2022-07-29T10:17:07;2.83;;;0.73;;
58063;SDS011;43851;55.856;37.186;2022-07-29T10:19:35;3.65;;;0.75;;
58063;SDS011;43851;55.856;37.186;2022-07-29T10:22:04;1.20;;;0.60;;
58063;SDS011;43851;55.856;37.186;2022-07-29T10:24:35;4.00;;;1.15;;
58063;SDS011;43851;55.856;37.186;2022-07-29T10:27:06;2.40;;;0.90;;
58063;SDS011;43851;55.856;37.186;2022-07-29T10:29:33;1.40;;;0.65;;
58063;SDS011;43851;55.856;37.186;2022-07-29T10:40:38;1.38;;;0.70;;
58063;SDS011;43851;55.856;37.186;2022-07-29T10:43:50;2.65;;;0.80;;
58063;SDS011;43851;55.856;37.186;2022-07-29T10:46:18;2.53;;;0.80;;
58063;SDS011;43851;55.856;37.186;2022-07-29T10:51:58;1.75;;;0.55;;
58063;SDS011;43851;55.856;37.186;2022-07-29T11:05:08;2.38;;;0.85;;
58063;SDS011;43851;55.856;37.186;2022-07-29T11:08:01;1.02;;;0.70;;
58063;SDS011;43851;55.856;37.186;2022-07-29T11:10:33;3.53;;;0.75;;
58063;SDS011;43851;55.856;37.186;2022-07-29T11:12:58;2.25;;;0.88;;
58063;SDS011;43851;55.856;37.186;2022-07-29T11:15:24;2.05;;;0.60;;
58063;SDS011;43851;55.856;37.186;2022-07-29T11:23:21;1.65;;;0.75;;
58063;SDS011;43851;55.856;37.186;2022-07-29T11:28:51;1.88;;;0.70;;
58063;SDS011;43851;55.856;37.186;2022-07-29T11:39:32;1.00;;;0.70;;
58063;SDS011;43851;55.856;37.186;2022-07-29T11:45:27;0.70;;;0.70;;
58063;SDS011;43851;55.856;37.186;2022-07-29T11:47:41;1.58;;;0.50;;
58063;SDS011;43851;55.856;37.186;2022-07-29T11:50:17;2.20;;;0.70;;
58063;SDS011;43851;55.856;37.186;2022-07-29T11:52:52;2.72;;;0.70;;
58063;SDS011;43851;55.856;37.186;2022-07-29T11:55:20;1.65;;;0.70;;
58063;SDS011;43851;55.856;37.186;2022-07-29T11:57:52;2.97;;;0.60;;
58063;SDS011;43851;55.856;37.186;2022-07-29T12:00:21;1.00;;;0.52;;
58063;SDS011;43851;55.856;37.186;2022-07-29T12:02:47;3.53;;;1.13;;
58063;SDS011;43851;55.856;37.186;2022-07-29T12:05:13;2.03;;;0.80;;
58063;SDS011;43851;55.856;37.186;2022-07-29T12:07:39;1.95;;;0.90;;
58063;SDS011;43851;55.856;37.186;2022-07-29T12:10:06;2.50;;;1.05;;
58063;SDS011;43851;55.856;37.186;2022-07-29T12:12:33;3.78;;;1.50;;
58063;SDS011;43851;55.856;37.186;2022-07-29T12:15:15;4.72;;;1.13;;
58063;SDS011;43851;55.856;37.186;2022-07-29T12:20:11;3.92;;;1.35;;
58063;SDS011;43851;55.856;37.186;2022-07-29T12:22:41;1.10;;;0.50;;
58063;SDS011;43851;55.856;37.186;2022-07-29T12:25:13;5.35;;;0.60;;
58063;SDS011;43851;55.856;37.186;2022-07-29T12:27:41;0.60;;;0.60;;
58063;SDS011;43851;55.856;37.186;2022-07-29T12:30:15;2.38;;;0.77;;
58063;SDS011;43851;55.856;37.186;2022-07-29T12:35:15;0.98;;;0.75;;
58063;SDS011;43851;55.856;37.186;2022-07-29T12:37:45;2.17;;;1.08;;
58063;SDS011;43851;55.856;37.186;2022-07-29T12:40:16;1.75;;;0.73;;
58063;SDS011;43851;55.856;37.186;2022-07-29T12:45:32;2.17;;;0.90;;
58063;SDS011;43851;55.856;37.186;2022-07-29T12:47:58;1.95;;;0.93;;
58063;SDS011;43851;55.856;37.186;2022-07-29T12:50:24;1.23;;;0.77;;
58063;SDS011;43851;55.856;37.186;2022-07-29T12:52:50;3.97;;;0.90;;
58063;SDS011;43851;55.856;37.186;2022-07-29T12:55:37;2.10;;;0.70;;
58063;SDS011;43851;55.856;37.186;2022-07-29T12:58:09;2.08;;;0.47;;
58063;SDS011;43851;55.856;37.186;2022-07-29T13:00:40;0.52;;;0.40;;
58063;SDS011;43851;55.856;37.186;2022-07-29T13:03:05;0.90;;;0.52;;
58063;SDS011;43851;55.856;37.186;2022-07-29T13:05:42;2.58;;;0.70;;
58063;SDS011;43851;55.856;37.186;2022-07-29T13:08:12;1.35;;;0.60;;
58063;SDS011;43851;55.856;37.186;2022-07-29T13:10:40;1.20;;;0.60;;
58063;SDS011;43851;55.856;37.186;2022-07-29T13:13:08;2.72;;;0.60;;
58063;SDS011;43851;55.856;37.186;2022-07-29T13:15:39;3.30;;;0.80;;
58063;SDS011;43851;55.856;37.186;2022-07-29T13:18:25;2.00;;;0.70;;
58063;SDS011;43851;55.856;37.186;2022-07-29T13:21:19;1.23;;;0.77;;
58063;SDS011;43851;55.856;37.186;2022-07-29T13:23:45;1.58;;;0.52;;
58063;SDS011;43851;55.856;37.186;2022-07-29T13:26:11;3.22;;;0.80;;
58063;SDS011;43851;55.856;37.186;2022-07-29T13:28:37;1.80;;;0.80;;
58063;SDS011;43851;55.856;37.186;2022-07-29T13:31:03;0.73;;;0.43;;
58063;SDS011;43851;55.856;37.186;2022-07-29T13:33:30;1.95;;;0.77;;
58063;SDS011;43851;55.856;37.186;2022-07-29T13:35:56;3.42;;;0.90;;
58063;SDS011;43851;55.856;37.186;2022-07-29T13:38:22;3.13;;;1.45;;
58063;SDS011;43851;55.856;37.186;2022-07-29T13:40:48;3.15;;;0.90;;
58063;SDS011;43851;55.856;37.186;2022-07-29T13:43:13;2.42;;;0.93;;
58063;SDS011;43851;55.856;37.186;2022-07-29T13:45:39;4.05;;;0.82;;
58063;SDS011;43851;55.856;37.186;2022-07-29T13:48:05;2.55;;;0.70;;
58063;SDS011;43851;55.856;37.186;2022-07-29T13:50:31;4.43;;;0.88;;
58063;SDS011;43851;55.856;37.186;2022-07-29T13:52:58;1.55;;;0.70;;
58063;SDS011;43851;55.856;37.186;2022-07-29T13:55:24;2.78;;;0.82;;
58063;SDS011;43851;55.856;37.186;2022-07-29T13:57:50;0.88;;;0.68;;
58063;SDS011;43851;55.856;37.186;2022-07-29T14:00:15;1.58;;;0.80;;
58063;SDS011;43851;55.856;37.186;2022-07-29T14:02:42;1.25;;;0.80;;
58063;SDS011;43851;55.856;37.186;2022-07-29T14:05:08;3.05;;;0.90;;
58063;SDS011;43851;55.856;37.186;2022-07-29T14:07:35;2.38;;;0.90;;
58063;SDS011;43851;55.856;37.186;2022-07-29T14:10:04;1.50;;;0.90;;
58063;SDS011;43851;55.856;37.186;2022-07-29T14:12:31;4.40;;;0.95;;
58063;SDS011;43851;55.856;37.186;2022-07-29T14:14:56;2.80;;;1.05;;
58063;SDS011;43851;55.856;37.186;2022-07-29T14:17:22;1.83;;;0.93;;
58063;SDS011;43851;55.856;37.186;2022-07-29T14:19:48;5.57;;;1.55;;
58063;SDS011;43851;55.856;37.186;2022-07-29T14:22:14;2.33;;;1.02;;
58063;SDS011;43851;55.856;37.186;2022-07-29T14:24:40;2.45;;;0.80;;
58063;SDS011;43851;55.856;37.186;2022-07-29T14:27:06;3.97;;;1.23;;
58063;SDS011;43851;55.856;37.186;2022-07-29T14:29:33;2.00;;;1.13;;
58063;SDS011;43851;55.856;37.186;2022-07-29T14:31:59;3.35;;;1.30;;
58063;SDS011;43851;55.856;37.186;2022-07-29T14:34:25;1.80;;;1.10;;
58063;SDS011;43851;55.856;37.186;2022-07-29T14:36:51;2.25;;;1.10;;
58063;SDS011;43851;55.856;37.186;2022-07-29T14:39:19;1.67;;;1.00;;
58063;SDS011;43851;55.856;37.186;2022-07-29T14:41:44;2.80;;;0.90;;
58063;SDS011;43851;55.856;37.186;2022-07-29T14:44:10;3.78;;;0.90;;
58063;SDS011;43851;55.856;37.186;2022-07-29T14:46:36;4.28;;;0.90;;
58063;SDS011;43851;55.856;37.186;2022-07-29T14:49:02;2.55;;;1.05;;
58063;SDS011;43851;55.856;37.186;2022-07-29T14:51:27;2.60;;;1.02;;
58063;SDS011;43851;55.856;37.186;2022-07-29T14:53:53;3.70;;;1.00;;
58063;SDS011;43851;55.856;37.186;2022-07-29T14:56:19;2.35;;;1.08;;
58063;SDS011;43851;55.856;37.186;2022-07-29T14:58:45;5.57;;;1.48;;
58063;SDS011;43851;55.856;37.186;2022-07-29T15:01:11;11.10;;;1.10;;
58063;SDS011;43851;55.856;37.186;2022-07-29T15:03:36;1.55;;;0.90;;
58063;SDS011;43851;55.856;37.186;2022-07-29T15:06:02;5.68;;;1.45;;
58063;SDS011;43851;55.856;37.186;2022-07-29T15:08:28;2.08;;;1.00;;
58063;SDS011;43851;55.856;37.186;2022-07-29T15:10:55;2.70;;;1.05;;
58063;SDS011;43851;55.856;37.186;2022-07-29T15:13:22;4.68;;;1.13;;
58063;SDS011;43851;55.856;37.186;2022-07-29T15:15:48;3.55;;;1.02;;
58063;SDS011;43851;55.856;37.186;2022-07-29T15:18:15;2.13;;;0.80;;
58063;SDS011;43851;55.856;37.186;2022-07-29T15:20:40;4.45;;;1.25;;
58063;SDS011;43851;55.856;37.186;2022-07-29T15:23:06;3.17;;;1.13;;
58063;SDS011;43851;55.856;37.186;2022-07-29T15:25:34;2.28;;;1.20;;
58063;SDS011;43851;55.856;37.186;2022-07-29T15:28:02;2.10;;;0.90;;
58063;SDS011;43851;55.856;37.186;2022-07-29T15:30:29;4.30;;;0.75;;
58063;SDS011;43851;55.856;37.186;2022-07-29T15:32:56;4.03;;;1.00;;
58063;SDS011;43851;55.856;37.186;2022-07-29T15:35:21;2.67;;;0.77;;
58063;SDS011;43851;55.856;37.186;2022-07-29T15:37:47;6.45;;;1.17;;
58063;SDS011;43851;55.856;37.186;2022-07-29T15:40:13;3.13;;;1.00;;